Terminal Aerodrome Forecast
Issued by NWS

Home | Current Version | Previous Version | Graphics & Text | Print | Product List | Glossary On
Versions: 1 2 3 4 5 6 7 8 9 10 11 12 13 14 15 16 17 18 19 20 21 22 23
000
FTUS43 KMPX 191726
TAFAXN
TAF
KAXN 191726Z 1918/2018 17011KT 6SM BR FEW003
     FM192200 17009KT 3/4SM BR OVC003
     FM200400 16009KT 1/4SM FG VV002=

USA.gov is the U.S. government's official web portal to all federal, state and local government web resources and services.